sensor_id;sensor_type;location;lat;lon;timestamp;P1;durP1;ratioP1;P2;durP2;ratioP2
22857;SDS011;13919;45.644;13.764;2022-08-19T00:01:15;14.02;;;3.15;;
22857;SDS011;13919;45.644;13.764;2022-08-19T00:03:41;11.40;;;3.20;;
22857;SDS011;13919;45.644;13.764;2022-08-19T00:06:07;13.93;;;3.85;;
22857;SDS011;13919;45.644;13.764;2022-08-19T00:08:34;13.23;;;3.50;;
22857;SDS011;13919;45.644;13.764;2022-08-19T00:11:00;12.02;;;3.70;;
22857;SDS011;13919;45.644;13.764;2022-08-19T00:13:26;15.75;;;3.92;;
22857;SDS011;13919;45.644;13.764;2022-08-19T00:15:53;14.98;;;3.67;;
22857;SDS011;13919;45.644;13.764;2022-08-19T00:18:19;9.73;;;3.47;;
22857;SDS011;13919;45.644;13.764;2022-08-19T00:20:45;14.43;;;3.67;;
22857;SDS011;13919;45.644;13.764;2022-08-19T00:23:11;14.45;;;4.53;;
22857;SDS011;13919;45.644;13.764;2022-08-19T00:25:37;17.20;;;3.60;;
22857;SDS011;13919;45.644;13.764;2022-08-19T00:28:04;10.25;;;3.38;;
22857;SDS011;13919;45.644;13.764;2022-08-19T00:30:30;14.38;;;3.55;;
22857;SDS011;13919;45.644;13.764;2022-08-19T00:32:56;14.20;;;3.03;;
22857;SDS011;13919;45.644;13.764;2022-08-19T00:35:22;9.32;;;2.63;;
22857;SDS011;13919;45.644;13.764;2022-08-19T00:37:48;9.65;;;2.85;;
22857;SDS011;13919;45.644;13.764;2022-08-19T00:40:15;10.05;;;2.70;;
22857;SDS011;13919;45.644;13.764;2022-08-19T00:42:42;13.98;;;2.78;;
22857;SDS011;13919;45.644;13.764;2022-08-19T00:45:19;15.93;;;3.20;;
22857;SDS011;13919;45.644;13.764;2022-08-19T00:47:46;10.25;;;2.90;;
22857;SDS011;13919;45.644;13.764;2022-08-19T00:50:15;13.15;;;3.30;;
22857;SDS011;13919;45.644;13.764;2022-08-19T00:52:43;12.40;;;2.90;;
22857;SDS011;13919;45.644;13.764;2022-08-19T00:55:15;14.38;;;2.78;;
22857;SDS011;13919;45.644;13.764;2022-08-19T00:57:46;16.70;;;4.00;;
22857;SDS011;13919;45.644;13.764;2022-08-19T01:00:15;14.73;;;3.88;;
22857;SDS011;13919;45.644;13.764;2022-08-19T01:02:42;15.75;;;4.10;;
22857;SDS011;13919;45.644;13.764;2022-08-19T01:05:10;16.02;;;4.15;;
22857;SDS011;13919;45.644;13.764;2022-08-19T01:07:37;21.10;;;4.97;;
22857;SDS011;13919;45.644;13.764;2022-08-19T01:10:05;20.38;;;4.82;;
22857;SDS011;13919;45.644;13.764;2022-08-19T01:12:32;19.85;;;4.95;;
22857;SDS011;13919;45.644;13.764;2022-08-19T01:14:58;23.42;;;5.45;;
22857;SDS011;13919;45.644;13.764;2022-08-19T01:17:24;22.95;;;5.38;;
22857;SDS011;13919;45.644;13.764;2022-08-19T01:19:50;25.85;;;5.15;;
22857;SDS011;13919;45.644;13.764;2022-08-19T01:24:49;25.58;;;5.50;;
22857;SDS011;13919;45.644;13.764;2022-08-19T01:27:16;25.40;;;5.40;;
22857;SDS011;13919;45.644;13.764;2022-08-19T01:29:42;35.10;;;6.85;;
22857;SDS011;13919;45.644;13.764;2022-08-19T01:32:11;48.30;;;8.48;;
22857;SDS011;13919;45.644;13.764;2022-08-19T01:34:38;45.25;;;9.00;;
22857;SDS011;13919;45.644;13.764;2022-08-19T01:37:08;37.20;;;9.45;;
22857;SDS011;13919;45.644;13.764;2022-08-19T01:39:36;39.05;;;7.82;;
22857;SDS011;13919;45.644;13.764;2022-08-19T01:42:02;35.25;;;9.20;;
22857;SDS011;13919;45.644;13.764;2022-08-19T01:44:29;38.40;;;8.80;;
22857;SDS011;13919;45.644;13.764;2022-08-19T01:46:55;30.27;;;7.10;;
22857;SDS011;13919;45.644;13.764;2022-08-19T01:49:22;29.95;;;7.47;;
22857;SDS011;13919;45.644;13.764;2022-08-19T01:51:49;26.73;;;8.77;;
22857;SDS011;13919;45.644;13.764;2022-08-19T01:54:16;29.65;;;7.18;;
22857;SDS011;13919;45.644;13.764;2022-08-19T01:56:42;30.77;;;6.97;;
22857;SDS011;13919;45.644;13.764;2022-08-19T01:59:10;26.77;;;7.68;;
22857;SDS011;13919;45.644;13.764;2022-08-19T02:04:04;30.60;;;6.57;;
22857;SDS011;13919;45.644;13.764;2022-08-19T02:06:30;22.02;;;5.57;;
22857;SDS011;13919;45.644;13.764;2022-08-19T02:08:57;22.85;;;5.88;;
22857;SDS011;13919;45.644;13.764;2022-08-19T02:11:28;23.48;;;6.22;;
22857;SDS011;13919;45.644;13.764;2022-08-19T02:13:56;19.17;;;6.78;;
22857;SDS011;13919;45.644;13.764;2022-08-19T02:16:23;23.48;;;7.10;;
22857;SDS011;13919;45.644;13.764;2022-08-19T02:18:49;26.92;;;7.45;;
22857;SDS011;13919;45.644;13.764;2022-08-19T02:21:19;25.75;;;7.88;;
22857;SDS011;13919;45.644;13.764;2022-08-19T02:23:46;23.27;;;8.00;;
22857;SDS011;13919;45.644;13.764;2022-08-19T02:26:12;19.88;;;7.15;;
22857;SDS011;13919;45.644;13.764;2022-08-19T02:28:38;24.77;;;6.43;;
22857;SDS011;13919;45.644;13.764;2022-08-19T02:31:08;16.50;;;6.72;;
22857;SDS011;13919;45.644;13.764;2022-08-19T02:33:35;16.73;;;5.63;;
22857;SDS011;13919;45.644;13.764;2022-08-19T02:36:03;11.75;;;3.67;;
22857;SDS011;13919;45.644;13.764;2022-08-19T02:38:29;13.73;;;3.60;;
22857;SDS011;13919;45.644;13.764;2022-08-19T02:40:56;14.35;;;3.90;;
22857;SDS011;13919;45.644;13.764;2022-08-19T02:43:23;8.50;;;3.30;;
22857;SDS011;13919;45.644;13.764;2022-08-19T02:45:51;11.95;;;3.60;;
22857;SDS011;13919;45.644;13.764;2022-08-19T02:48:18;12.45;;;3.50;;
22857;SDS011;13919;45.644;13.764;2022-08-19T02:50:44;12.23;;;3.42;;
22857;SDS011;13919;45.644;13.764;2022-08-19T02:53:11;13.27;;;3.20;;
22857;SDS011;13919;45.644;13.764;2022-08-19T02:55:44;8.73;;;2.72;;
22857;SDS011;13919;45.644;13.764;2022-08-19T02:58:11;12.93;;;3.67;;
22857;SDS011;13919;45.644;13.764;2022-08-19T03:00:44;12.93;;;2.88;;
22857;SDS011;13919;45.644;13.764;2022-08-19T03:03:18;9.18;;;3.45;;
22857;SDS011;13919;45.644;13.764;2022-08-19T03:05:44;9.95;;;3.65;;
22857;SDS011;13919;45.644;13.764;2022-08-19T03:08:10;10.50;;;3.42;;
22857;SDS011;13919;45.644;13.764;2022-08-19T03:10:45;14.73;;;3.60;;
22857;SDS011;13919;45.644;13.764;2022-08-19T03:13:16;13.02;;;3.15;;
22857;SDS011;13919;45.644;13.764;2022-08-19T03:15:43;9.30;;;3.30;;
22857;SDS011;13919;45.644;13.764;2022-08-19T03:18:11;11.30;;;3.00;;
22857;SDS011;13919;45.644;13.764;2022-08-19T03:20:41;9.85;;;2.90;;
22857;SDS011;13919;45.644;13.764;2022-08-19T03:23:08;11.43;;;2.97;;
22857;SDS011;13919;45.644;13.764;2022-08-19T03:25:38;14.48;;;3.22;;
22857;SDS011;13919;45.644;13.764;2022-08-19T03:28:06;7.22;;;2.90;;
22857;SDS011;13919;45.644;13.764;2022-08-19T03:30:32;12.38;;;3.05;;
22857;SDS011;13919;45.644;13.764;2022-08-19T03:32:58;7.40;;;2.47;;
22857;SDS011;13919;45.644;13.764;2022-08-19T03:35:24;13.32;;;2.55;;
22857;SDS011;13919;45.644;13.764;2022-08-19T03:37:50;10.25;;;2.70;;
22857;SDS011;13919;45.644;13.764;2022-08-19T03:40:16;11.90;;;2.42;;
22857;SDS011;13919;45.644;13.764;2022-08-19T03:42:43;9.38;;;2.83;;
22857;SDS011;13919;45.644;13.764;2022-08-19T03:45:11;15.00;;;2.97;;
22857;SDS011;13919;45.644;13.764;2022-08-19T03:47:36;10.40;;;2.30;;
22857;SDS011;13919;45.644;13.764;2022-08-19T03:50:03;12.63;;;2.50;;
22857;SDS011;13919;45.644;13.764;2022-08-19T03:52:29;9.75;;;2.50;;
22857;SDS011;13919;45.644;13.764;2022-08-19T03:54:55;9.10;;;2.20;;
22857;SDS011;13919;45.644;13.764;2022-08-19T03:57:21;14.07;;;2.80;;
22857;SDS011;13919;45.644;13.764;2022-08-19T03:59:46;8.15;;;2.03;;
22857;SDS011;13919;45.644;13.764;2022-08-19T04:02:12;8.95;;;2.40;;
22857;SDS011;13919;45.644;13.764;2022-08-19T04:04:39;13.57;;;2.50;;
22857;SDS011;13919;45.644;13.764;2022-08-19T04:07:06;20.20;;;3.50;;
22857;SDS011;13919;45.644;13.764;2022-08-19T04:09:34;18.13;;;4.15;;
22857;SDS011;13919;45.644;13.764;2022-08-19T04:12:01;20.25;;;4.68;;
22857;SDS011;13919;45.644;13.764;2022-08-19T04:14:31;32.60;;;6.30;;
22857;SDS011;13919;45.644;13.764;2022-08-19T04:16:57;44.10;;;5.95;;
22857;SDS011;13919;45.644;13.764;2022-08-19T04:19:26;48.65;;;6.20;;
22857;SDS011;13919;45.644;13.764;2022-08-19T04:21:54;31.08;;;6.07;;
22857;SDS011;13919;45.644;13.764;2022-08-19T04:24:20;35.38;;;5.43;;
22857;SDS011;13919;45.644;13.764;2022-08-19T04:26:46;27.63;;;4.90;;
22857;SDS011;13919;45.644;13.764;2022-08-19T04:29:14;23.00;;;5.10;;
22857;SDS011;13919;45.644;13.764;2022-08-19T04:31:44;12.50;;;3.22;;
22857;SDS011;13919;45.644;13.764;2022-08-19T04:34:11;10.75;;;2.70;;
22857;SDS011;13919;45.644;13.764;2022-08-19T04:36:39;8.90;;;2.97;;
22857;SDS011;13919;45.644;13.764;2022-08-19T04:39:07;10.57;;;2.60;;
22857;SDS011;13919;45.644;13.764;2022-08-19T04:41:35;13.02;;;3.22;;
22857;SDS011;13919;45.644;13.764;2022-08-19T04:44:20;7.53;;;1.90;;
22857;SDS011;13919;45.644;13.764;2022-08-19T04:46:46;7.68;;;2.25;;
22857;SDS011;13919;45.644;13.764;2022-08-19T04:49:13;8.82;;;2.53;;
22857;SDS011;13919;45.644;13.764;2022-08-19T04:51:41;5.90;;;1.40;;
22857;SDS011;13919;45.644;13.764;2022-08-19T04:54:07;3.38;;;1.15;;
22857;SDS011;13919;45.644;13.764;2022-08-19T04:56:33;3.90;;;1.10;;
22857;SDS011;13919;45.644;13.764;2022-08-19T04:58:59;4.72;;;0.93;;
22857;SDS011;13919;45.644;13.764;2022-08-19T05:03:55;7.13;;;1.30;;
22857;SDS011;13919;45.644;13.764;2022-08-19T05:06:22;5.60;;;1.15;;
22857;SDS011;13919;45.644;13.764;2022-08-19T05:08:48;9.30;;;1.10;;
22857;SDS011;13919;45.644;13.764;2022-08-19T05:13:43;3.92;;;1.17;;
22857;SDS011;13919;45.644;13.764;2022-08-19T05:16:09;5.15;;;1.25;;
22857;SDS011;13919;45.644;13.764;2022-08-19T05:18:36;3.47;;;0.80;;
22857;SDS011;13919;45.644;13.764;2022-08-19T05:21:22;3.65;;;0.77;;
22857;SDS011;13919;45.644;13.764;2022-08-19T05:24:06;4.45;;;0.75;;
22857;SDS011;13919;45.644;13.764;2022-08-19T05:26:36;7.45;;;1.17;;
22857;SDS011;13919;45.644;13.764;2022-08-19T05:29:02;3.25;;;0.65;;
22857;SDS011;13919;45.644;13.764;2022-08-19T05:31:29;2.53;;;0.82;;
22857;SDS011;13919;45.644;13.764;2022-08-19T05:33:55;3.75;;;0.60;;
22857;SDS011;13919;45.644;13.764;2022-08-19T05:36:23;3.00;;;0.63;;
22857;SDS011;13919;45.644;13.764;2022-08-19T05:38:49;3.25;;;0.70;;
22857;SDS011;13919;45.644;13.764;2022-08-19T05:41:17;2.78;;;0.55;;
22857;SDS011;13919;45.644;13.764;2022-08-19T05:43:43;2.85;;;0.70;;
22857;SDS011;13919;45.644;13.764;2022-08-19T05:46:15;1.60;;;0.63;;
22857;SDS011;13919;45.644;13.764;2022-08-19T05:48:43;3.35;;;0.55;;
22857;SDS011;13919;45.644;13.764;2022-08-19T05:51:09;3.13;;;0.50;;
22857;SDS011;13919;45.644;13.764;2022-08-19T05:53:35;2.65;;;0.52;;
22857;SDS011;13919;45.644;13.764;2022-08-19T05:56:09;3.25;;;0.55;;
22857;SDS011;13919;45.644;13.764;2022-08-19T05:58:41;2.70;;;0.50;;
22857;SDS011;13919;45.644;13.764;2022-08-19T06:01:11;3.53;;;0.70;;
22857;SDS011;13919;45.644;13.764;2022-08-19T06:03:39;2.67;;;0.60;;
22857;SDS011;13919;45.644;13.764;2022-08-19T06:06:09;1.98;;;0.60;;
22857;SDS011;13919;45.644;13.764;2022-08-19T06:08:36;4.50;;;0.80;;
22857;SDS011;13919;45.644;13.764;2022-08-19T06:13:45;3.95;;;0.70;;
22857;SDS011;13919;45.644;13.764;2022-08-19T06:16:15;3.38;;;0.73;;
22857;SDS011;13919;45.644;13.764;2022-08-19T06:18:52;4.20;;;0.77;;
22857;SDS011;13919;45.644;13.764;2022-08-19T06:21:21;4.03;;;0.70;;
22857;SDS011;13919;45.644;13.764;2022-08-19T06:23:49;6.18;;;0.90;;
22857;SDS011;13919;45.644;13.764;2022-08-19T06:26:17;2.67;;;0.88;;
22857;SDS011;13919;45.644;13.764;2022-08-19T06:28:44;5.60;;;0.90;;
22857;SDS011;13919;45.644;13.764;2022-08-19T06:31:13;3.20;;;1.17;;
22857;SDS011;13919;45.644;13.764;2022-08-19T06:33:46;4.18;;;1.08;;
22857;SDS011;13919;45.644;13.764;2022-08-19T06:36:29;4.30;;;0.95;;
22857;SDS011;13919;45.644;13.764;2022-08-19T06:38:59;5.93;;;1.73;;
22857;SDS011;13919;45.644;13.764;2022-08-19T06:41:26;4.93;;;1.38;;
22857;SDS011;13919;45.644;13.764;2022-08-19T06:43:53;6.72;;;1.30;;
22857;SDS011;13919;45.644;13.764;2022-08-19T06:46:20;5.05;;;1.30;;
22857;SDS011;13919;45.644;13.764;2022-08-19T06:48:46;6.40;;;1.20;;
22857;SDS011;13919;45.644;13.764;2022-08-19T06:51:16;3.92;;;1.10;;
22857;SDS011;13919;45.644;13.764;2022-08-19T06:53:48;3.50;;;1.00;;
22857;SDS011;13919;45.644;13.764;2022-08-19T06:56:16;4.97;;;1.40;;
22857;SDS011;13919;45.644;13.764;2022-08-19T06:58:43;6.60;;;1.30;;
22857;SDS011;13919;45.644;13.764;2022-08-19T07:01:09;5.38;;;1.50;;
22857;SDS011;13919;45.644;13.764;2022-08-19T07:03:35;7.32;;;1.45;;
22857;SDS011;13919;45.644;13.764;2022-08-19T07:06:06;8.55;;;1.40;;
22857;SDS011;13919;45.644;13.764;2022-08-19T07:08:34;9.88;;;1.80;;
22857;SDS011;13919;45.644;13.764;2022-08-19T07:11:02;10.75;;;1.70;;
22857;SDS011;13919;45.644;13.764;2022-08-19T07:13:32;4.75;;;1.02;;
22857;SDS011;13919;45.644;13.764;2022-08-19T07:16:02;2.80;;;0.85;;
22857;SDS011;13919;45.644;13.764;2022-08-19T07:18:30;4.53;;;1.00;;
22857;SDS011;13919;45.644;13.764;2022-08-19T07:21:03;5.03;;;1.15;;
22857;SDS011;13919;45.644;13.764;2022-08-19T07:23:29;4.22;;;1.00;;
22857;SDS011;13919;45.644;13.764;2022-08-19T07:25:55;5.13;;;0.90;;
22857;SDS011;13919;45.644;13.764;2022-08-19T07:28:22;7.50;;;1.23;;
22857;SDS011;13919;45.644;13.764;2022-08-19T07:30:48;7.32;;;1.00;;
22857;SDS011;13919;45.644;13.764;2022-08-19T07:33:14;7.18;;;1.45;;
22857;SDS011;13919;45.644;13.764;2022-08-19T07:35:41;2.67;;;0.88;;
22857;SDS011;13919;45.644;13.764;2022-08-19T07:38:07;4.80;;;0.93;;
22857;SDS011;13919;45.644;13.764;2022-08-19T07:40:32;7.57;;;1.23;;
22857;SDS011;13919;45.644;13.764;2022-08-19T07:42:58;5.43;;;1.30;;
22857;SDS011;13919;45.644;13.764;2022-08-19T07:45:24;5.63;;;1.17;;
22857;SDS011;13919;45.644;13.764;2022-08-19T07:47:50;6.85;;;1.10;;
22857;SDS011;13919;45.644;13.764;2022-08-19T07:50:16;6.25;;;1.20;;
22857;SDS011;13919;45.644;13.764;2022-08-19T07:52:44;6.60;;;1.05;;
22857;SDS011;13919;45.644;13.764;2022-08-19T07:55:10;6.40;;;1.45;;
22857;SDS011;13919;45.644;13.764;2022-08-19T07:57:36;7.47;;;1.20;;
22857;SDS011;13919;45.644;13.764;2022-08-19T08:00:03;6.15;;;1.38;;
22857;SDS011;13919;45.644;13.764;2022-08-19T08:02:31;3.35;;;1.25;;
22857;SDS011;13919;45.644;13.764;2022-08-19T08:04:56;11.95;;;1.50;;
22857;SDS011;13919;45.644;13.764;2022-08-19T08:07:40;8.38;;;1.70;;
22857;SDS011;13919;45.644;13.764;2022-08-19T08:10:24;5.82;;;1.30;;
22857;SDS011;13919;45.644;13.764;2022-08-19T08:12:50;5.03;;;1.35;;
22857;SDS011;13919;45.644;13.764;2022-08-19T08:15:16;13.90;;;4.72;;
22857;SDS011;13919;45.644;13.764;2022-08-19T08:17:43;13.02;;;3.08;;
22857;SDS011;13919;45.644;13.764;2022-08-19T08:20:10;13.85;;;2.80;;
22857;SDS011;13919;45.644;13.764;2022-08-19T08:22:35;16.48;;;6.88;;
22857;SDS011;13919;45.644;13.764;2022-08-19T08:25:21;13.77;;;4.47;;
22857;SDS011;13919;45.644;13.764;2022-08-19T08:27:48;12.68;;;4.68;;
22857;SDS011;13919;45.644;13.764;2022-08-19T08:30:22;14.45;;;3.50;;
22857;SDS011;13919;45.644;13.764;2022-08-19T08:32:49;15.68;;;4.55;;
22857;SDS011;13919;45.644;13.764;2022-08-19T08:35:17;13.63;;;2.97;;
22857;SDS011;13919;45.644;13.764;2022-08-19T08:40:16;12.23;;;2.95;;
22857;SDS011;13919;45.644;13.764;2022-08-19T08:45:47;14.75;;;2.85;;
22857;SDS011;13919;45.644;13.764;2022-08-19T08:51:16;17.52;;;4.38;;
22857;SDS011;13919;45.644;13.764;2022-08-19T08:53:46;17.45;;;5.40;;
22857;SDS011;13919;45.644;13.764;2022-08-19T08:56:15;51.92;;;25.38;;
22857;SDS011;13919;45.644;13.764;2022-08-19T08:58:47;19.40;;;5.72;;
22857;SDS011;13919;45.644;13.764;2022-08-19T09:01:28;23.65;;;6.70;;
22857;SDS011;13919;45.644;13.764;2022-08-19T09:03:54;29.52;;;8.25;;
22857;SDS011;13919;45.644;13.764;2022-08-19T09:08:54;26.17;;;8.10;;
22857;SDS011;13919;45.644;13.764;2022-08-19T09:16:39;46.70;;;14.32;;
22857;SDS011;13919;45.644;13.764;2022-08-19T09:19:06;38.20;;;11.40;;
22857;SDS011;13919;45.644;13.764;2022-08-19T09:21:33;41.25;;;12.20;;
22857;SDS011;13919;45.644;13.764;2022-08-19T09:24:00;41.53;;;12.85;;
22857;SDS011;13919;45.644;13.764;2022-08-19T09:26:27;57.17;;;15.70;;
22857;SDS011;13919;45.644;13.764;2022-08-19T09:28:53;19.67;;;4.50;;
22857;SDS011;13919;45.644;13.764;2022-08-19T09:31:20;31.52;;;4.63;;
22857;SDS011;13919;45.644;13.764;2022-08-19T09:33:48;23.98;;;3.60;;
22857;SDS011;13919;45.644;13.764;2022-08-19T09:36:16;27.52;;;4.28;;
22857;SDS011;13919;45.644;13.764;2022-08-19T09:38:43;17.05;;;4.10;;
22857;SDS011;13919;45.644;13.764;2022-08-19T09:41:12;24.13;;;4.65;;
22857;SDS011;13919;45.644;13.764;2022-08-19T09:43:44;27.67;;;5.18;;
22857;SDS011;13919;45.644;13.764;2022-08-19T09:48:38;25.05;;;4.30;;
22857;SDS011;13919;45.644;13.764;2022-08-19T09:51:05;34.35;;;7.57;;
22857;SDS011;13919;45.644;13.764;2022-08-19T09:53:37;31.15;;;6.80;;
22857;SDS011;13919;45.644;13.764;2022-08-19T09:56:04;29.70;;;5.45;;
22857;SDS011;13919;45.644;13.764;2022-08-19T09:58:31;30.67;;;6.03;;
22857;SDS011;13919;45.644;13.764;2022-08-19T10:00:58;33.28;;;5.68;;
22857;SDS011;13919;45.644;13.764;2022-08-19T10:03:25;32.53;;;5.20;;
22857;SDS011;13919;45.644;13.764;2022-08-19T10:05:51;32.22;;;6.00;;
22857;SDS011;13919;45.644;13.764;2022-08-19T10:08:22;26.08;;;5.00;;
22857;SDS011;13919;45.644;13.764;2022-08-19T10:10:49;35.70;;;6.82;;
22857;SDS011;13919;45.644;13.764;2022-08-19T10:13:16;31.52;;;6.35;;
22857;SDS011;13919;45.644;13.764;2022-08-19T10:15:43;27.73;;;5.73;;
22857;SDS011;13919;45.644;13.764;2022-08-19T10:18:09;24.17;;;4.90;;
22857;SDS011;13919;45.644;13.764;2022-08-19T10:20:36;39.97;;;5.90;;
22857;SDS011;13919;45.644;13.764;2022-08-19T10:23:02;30.50;;;6.03;;
22857;SDS011;13919;45.644;13.764;2022-08-19T10:25:29;25.88;;;5.32;;
22857;SDS011;13919;45.644;13.764;2022-08-19T10:27:55;27.30;;;5.78;;
22857;SDS011;13919;45.644;13.764;2022-08-19T10:30:21;36.75;;;6.68;;
22857;SDS011;13919;45.644;13.764;2022-08-19T10:32:47;47.63;;;7.78;;
22857;SDS011;13919;45.644;13.764;2022-08-19T10:35:13;44.15;;;7.40;;
22857;SDS011;13919;45.644;13.764;2022-08-19T10:37:40;46.20;;;8.43;;
22857;SDS011;13919;45.644;13.764;2022-08-19T10:40:07;52.45;;;9.00;;
22857;SDS011;13919;45.644;13.764;2022-08-19T10:42:35;39.72;;;8.70;;
22857;SDS011;13919;45.644;13.764;2022-08-19T10:45:02;53.45;;;7.82;;
22857;SDS011;13919;45.644;13.764;2022-08-19T10:47:30;39.28;;;7.50;;
22857;SDS011;13919;45.644;13.764;2022-08-19T10:49:56;45.35;;;6.95;;
22857;SDS011;13919;45.644;13.764;2022-08-19T10:52:42;27.00;;;6.07;;
22857;SDS011;13919;45.644;13.764;2022-08-19T10:55:09;24.40;;;5.85;;
22857;SDS011;13919;45.644;13.764;2022-08-19T10:57:53;28.17;;;5.68;;
22857;SDS011;13919;45.644;13.764;2022-08-19T11:00:20;31.40;;;7.40;;
22857;SDS011;13919;45.644;13.764;2022-08-19T11:02:47;22.77;;;6.05;;
22857;SDS011;13919;45.644;13.764;2022-08-19T11:05:14;22.35;;;5.35;;
22857;SDS011;13919;45.644;13.764;2022-08-19T11:07:41;19.15;;;4.80;;
22857;SDS011;13919;45.644;13.764;2022-08-19T11:10:11;16.63;;;4.30;;
22857;SDS011;13919;45.644;13.764;2022-08-19T11:12:38;12.55;;;3.90;;
22857;SDS011;13919;45.644;13.764;2022-08-19T11:15:04;23.00;;;9.15;;
22857;SDS011;13919;45.644;13.764;2022-08-19T11:17:31;22.38;;;9.48;;
22857;SDS011;13919;45.644;13.764;2022-08-19T11:19:57;16.23;;;4.82;;
22857;SDS011;13919;45.644;13.764;2022-08-19T11:22:23;12.50;;;3.75;;
22857;SDS011;13919;45.644;13.764;2022-08-19T11:24:49;15.40;;;3.92;;
22857;SDS011;13919;45.644;13.764;2022-08-19T11:27:16;15.55;;;3.78;;
22857;SDS011;13919;45.644;13.764;2022-08-19T11:29:43;12.30;;;3.63;;
22857;SDS011;13919;45.644;13.764;2022-08-19T11:32:10;15.02;;;4.03;;
22857;SDS011;13919;45.644;13.764;2022-08-19T11:34:38;14.27;;;4.25;;
22857;SDS011;13919;45.644;13.764;2022-08-19T11:37:04;15.45;;;4.15;;
22857;SDS011;13919;45.644;13.764;2022-08-19T11:39:32;18.40;;;4.75;;
22857;SDS011;13919;45.644;13.764;2022-08-19T11:41:58;15.05;;;3.80;;
22857;SDS011;13919;45.644;13.764;2022-08-19T11:44:25;13.43;;;4.00;;
22857;SDS011;13919;45.644;13.764;2022-08-19T11:46:52;19.25;;;4.20;;
22857;SDS011;13919;45.644;13.764;2022-08-19T11:49:19;18.02;;;4.32;;
22857;SDS011;13919;45.644;13.764;2022-08-19T11:51:47;16.08;;;3.67;;
22857;SDS011;13919;45.644;13.764;2022-08-19T11:54:16;15.20;;;4.75;;
22857;SDS011;13919;45.644;13.764;2022-08-19T11:56:43;16.92;;;3.72;;
22857;SDS011;13919;45.644;13.764;2022-08-19T11:59:09;15.18;;;3.50;;
22857;SDS011;13919;45.644;13.764;2022-08-19T12:01:35;11.93;;;3.40;;
22857;SDS011;13919;45.644;13.764;2022-08-19T12:04:02;13.52;;;3.50;;
22857;SDS011;13919;45.644;13.764;2022-08-19T12:06:31;14.83;;;3.07;;
22857;SDS011;13919;45.644;13.764;2022-08-19T12:09:00;11.68;;;3.10;;
22857;SDS011;13919;45.644;13.764;2022-08-19T12:11:26;10.30;;;3.20;;
22857;SDS011;13919;45.644;13.764;2022-08-19T12:13:53;14.90;;;3.33;;
22857;SDS011;13919;45.644;13.764;2022-08-19T12:16:20;10.63;;;3.08;;
22857;SDS011;13919;45.644;13.764;2022-08-19T12:18:48;13.98;;;3.13;;
22857;SDS011;13919;45.644;13.764;2022-08-19T12:21:23;16.73;;;3.40;;
22857;SDS011;13919;45.644;13.764;2022-08-19T12:23:51;13.90;;;3.15;;
22857;SDS011;13919;45.644;13.764;2022-08-19T12:26:17;11.52;;;2.75;;
22857;SDS011;13919;45.644;13.764;2022-08-19T12:28:43;11.57;;;3.08;;
22857;SDS011;13919;45.644;13.764;2022-08-19T12:31:11;8.30;;;2.05;;
22857;SDS011;13919;45.644;13.764;2022-08-19T12:33:37;8.77;;;2.65;;
22857;SDS011;13919;45.644;13.764;2022-08-19T12:36:04;13.20;;;3.00;;
22857;SDS011;13919;45.644;13.764;2022-08-19T12:38:31;8.45;;;2.40;;
22857;SDS011;13919;45.644;13.764;2022-08-19T12:40:57;11.68;;;2.63;;
22857;SDS011;13919;45.644;13.764;2022-08-19T12:43:23;13.52;;;2.40;;
22857;SDS011;13919;45.644;13.764;2022-08-19T12:45:49;10.07;;;2.38;;
22857;SDS011;13919;45.644;13.764;2022-08-19T12:48:15;10.88;;;2.28;;
22857;SDS011;13919;45.644;13.764;2022-08-19T12:50:42;10.75;;;2.17;;
22857;SDS011;13919;45.644;13.764;2022-08-19T12:53:13;8.48;;;2.60;;
22857;SDS011;13919;45.644;13.764;2022-08-19T12:55:39;12.18;;;2.42;;
22857;SDS011;13919;45.644;13.764;2022-08-19T12:58:05;9.70;;;2.45;;
22857;SDS011;13919;45.644;13.764;2022-08-19T13:00:31;10.25;;;2.88;;
22857;SDS011;13919;45.644;13.764;2022-08-19T13:02:57;9.80;;;2.30;;
22857;SDS011;13919;45.644;13.764;2022-08-19T13:05:25;7.43;;;2.00;;
22857;SDS011;13919;45.644;13.764;2022-08-19T13:07:52;10.07;;;2.00;;
22857;SDS011;13919;45.644;13.764;2022-08-19T13:12:48;9.60;;;2.33;;
22857;SDS011;13919;45.644;13.764;2022-08-19T13:15:14;9.13;;;2.00;;
22857;SDS011;13919;45.644;13.764;2022-08-19T13:17:45;8.68;;;2.13;;
22857;SDS011;13919;45.644;13.764;2022-08-19T13:20:14;12.30;;;2.83;;
22857;SDS011;13919;45.644;13.764;2022-08-19T13:22:40;8.95;;;2.53;;
22857;SDS011;13919;45.644;13.764;2022-08-19T13:25:07;11.00;;;2.85;;
22857;SDS011;13919;45.644;13.764;2022-08-19T13:27:34;9.60;;;2.20;;
22857;SDS011;13919;45.644;13.764;2022-08-19T13:30:00;10.60;;;2.63;;
22857;SDS011;13919;45.644;13.764;2022-08-19T13:32:45;9.07;;;1.95;;
22857;SDS011;13919;45.644;13.764;2022-08-19T13:35:30;8.73;;;2.20;;
22857;SDS011;13919;45.644;13.764;2022-08-19T13:37:56;9.55;;;2.42;;
22857;SDS011;13919;45.644;13.764;2022-08-19T13:40:23;8.90;;;2.75;;
22857;SDS011;13919;45.644;13.764;2022-08-19T13:42:51;13.40;;;2.90;;
22857;SDS011;13919;45.644;13.764;2022-08-19T13:45:19;9.85;;;2.20;;
22857;SDS011;13919;45.644;13.764;2022-08-19T13:47:45;10.25;;;2.78;;
22857;SDS011;13919;45.644;13.764;2022-08-19T13:50:12;9.13;;;2.22;;
22857;SDS011;13919;45.644;13.764;2022-08-19T13:52:39;8.20;;;2.03;;
22857;SDS011;13919;45.644;13.764;2022-08-19T13:55:05;13.48;;;2.15;;
22857;SDS011;13919;45.644;13.764;2022-08-19T13:57:32;10.27;;;1.52;;
22857;SDS011;13919;45.644;13.764;2022-08-19T13:59:58;8.02;;;1.45;;
22857;SDS011;13919;45.644;13.764;2022-08-19T14:02:24;7.70;;;1.45;;
22857;SDS011;13919;45.644;13.764;2022-08-19T14:04:51;9.45;;;1.42;;
22857;SDS011;13919;45.644;13.764;2022-08-19T14:07:17;8.55;;;1.73;;
22857;SDS011;13919;45.644;13.764;2022-08-19T14:09:43;7.68;;;1.38;;
22857;SDS011;13919;45.644;13.764;2022-08-19T14:12:09;7.22;;;1.27;;
22857;SDS011;13919;45.644;13.764;2022-08-19T14:14:38;6.22;;;1.60;;
22857;SDS011;13919;45.644;13.764;2022-08-19T14:17:08;7.32;;;1.30;;
22857;SDS011;13919;45.644;13.764;2022-08-19T14:19:34;7.13;;;1.80;;
22857;SDS011;13919;45.644;13.764;2022-08-19T14:22:00;7.32;;;1.40;;
22857;SDS011;13919;45.644;13.764;2022-08-19T14:24:27;7.15;;;1.23;;
22857;SDS011;13919;45.644;13.764;2022-08-19T14:26:53;8.25;;;1.38;;
22857;SDS011;13919;45.644;13.764;2022-08-19T14:29:19;5.35;;;1.35;;
22857;SDS011;13919;45.644;13.764;2022-08-19T14:31:45;7.20;;;1.13;;
22857;SDS011;13919;45.644;13.764;2022-08-19T14:34:11;6.57;;;1.23;;
22857;SDS011;13919;45.644;13.764;2022-08-19T14:36:38;3.28;;;1.10;;
22857;SDS011;13919;45.644;13.764;2022-08-19T14:39:04;5.80;;;1.23;;
22857;SDS011;13919;45.644;13.764;2022-08-19T14:41:30;8.13;;;1.25;;
22857;SDS011;13919;45.644;13.764;2022-08-19T14:43:56;8.55;;;1.90;;
22857;SDS011;13919;45.644;13.764;2022-08-19T14:46:23;6.10;;;2.03;;
22857;SDS011;13919;45.644;13.764;2022-08-19T14:48:50;6.38;;;1.40;;
22857;SDS011;13919;45.644;13.764;2022-08-19T14:51:17;7.65;;;1.40;;
22857;SDS011;13919;45.644;13.764;2022-08-19T14:53:43;7.13;;;1.17;;
22857;SDS011;13919;45.644;13.764;2022-08-19T14:56:10;8.13;;;1.13;;
22857;SDS011;13919;45.644;13.764;2022-08-19T14:58:37;7.40;;;1.33;;
22857;SDS011;13919;45.644;13.764;2022-08-19T15:01:03;6.47;;;1.48;;
22857;SDS011;13919;45.644;13.764;2022-08-19T15:03:29;9.35;;;2.40;;